Time;durP1;ratioP1;P1;durP2;ratioP2;P2;SDS_P1;SDS_P2;PMS_P1;PMS_P2;Temp;Humidity;BMP_temperature;BMP_pressure;BME280_temperature;BME280_humidity;BME280_pressure;Samples;Min_cycle;Max_cycle;Signal;HPM_P1;HPM_P2
2023/05/29 00:00:17;;;;;;;20.35;3.15;;;11.00;99.90;;;;;;4939897;29;20542;-78
2023/05/29 00:02:44;;;;;;;21.45;3.40;;;11.00;99.90;;;;;;4936435;29;20195;-79
2023/05/29 00:05:14;;;;;;;18.73;3.50;;;10.90;99.90;;;;;;4936090;29;20605;-78
2023/05/29 00:07:41;;;;;;;14.57;3.33;;;10.90;99.90;;;;;;4931720;29;20305;-78
2023/05/29 00:10:10;;;;;;;17.50;2.97;;;10.90;99.90;;;;;;4957002;29;20237;-79
2023/05/29 00:12:36;;;;;;;19.33;3.28;;;10.80;99.90;;;;;;4956645;29;20190;-78
2023/05/29 00:15:05;;;;;;;21.75;3.45;;;10.80;99.90;;;;;;4957181;29;20233;-78
2023/05/29 00:17:34;;;;;;;18.20;3.45;;;10.80;99.90;;;;;;4939500;29;20189;-78
2023/05/29 00:20:03;;;;;;;17.67;3.00;;;10.70;99.90;;;;;;4939387;29;20238;-78
2023/05/29 00:22:29;;;;;;;22.55;3.88;;;10.70;99.90;;;;;;4956185;29;20191;-78
2023/05/29 00:24:54;;;;;;;18.08;3.60;;;10.80;99.90;;;;;;4955238;29;20171;-78
2023/05/29 00:27:20;;;;;;;22.67;3.20;;;10.70;99.90;;;;;;4956256;28;20217;-78
2023/05/29 00:29:46;;;;;;;17.80;3.30;;;10.70;99.90;;;;;;4939117;29;20550;-78
2023/05/29 00:32:12;;;;;;;22.33;3.25;;;10.70;99.90;;;;;;4955920;29;20294;-78
2023/05/29 00:34:38;;;;;;;20.85;3.42;;;10.70;99.90;;;;;;4956117;29;20661;-78
2023/05/29 00:37:04;;;;;;;13.93;2.80;;;10.70;99.90;;;;;;4938773;29;20186;-78
2023/05/29 00:39:30;;;;;;;16.73;3.17;;;10.70;99.90;;;;;;4939143;29;20239;-77
2023/05/29 00:41:56;;;;;;;20.77;3.50;;;10.70;99.90;;;;;;4938912;29;20629;-78
2023/05/29 00:44:22;;;;;;;16.60;3.40;;;10.70;99.90;;;;;;4956305;29;20241;-78
2023/05/29 00:46:50;;;;;;;19.20;3.15;;;10.70;99.90;;;;;;4939063;29;20649;-77
2023/05/29 00:49:17;;;;;;;16.13;3.03;;;10.60;99.90;;;;;;4923100;29;20194;-77
2023/05/29 00:51:44;;;;;;;20.23;3.40;;;10.60;99.90;;;;;;4956116;29;20296;-77
2023/05/29 00:54:13;;;;;;;24.40;3.67;;;10.60;99.90;;;;;;4938386;29;20190;-78
2023/05/29 00:56:43;;;;;;;18.95;3.10;;;10.50;99.90;;;;;;4955092;28;20443;-77
2023/05/29 00:59:10;;;;;;;26.65;3.67;;;10.50;99.90;;;;;;4956271;29;20253;-78
2023/05/29 01:01:37;;;;;;;14.02;3.42;;;10.40;99.90;;;;;;4955618;29;20190;-77
2023/05/29 01:04:08;;;;;;;21.30;3.70;;;10.50;99.90;;;;;;4955665;29;20198;-77
2023/05/29 01:06:35;;;;;;;19.92;3.53;;;10.40;99.90;;;;;;4938432;29;20234;-76
2023/05/29 01:09:03;;;;;;;16.65;3.08;;;10.40;99.90;;;;;;4955994;29;20266;-77
2023/05/29 01:12:10;;;;;;;21.00;3.97;;;10.40;99.90;;;;;;4955684;29;20187;-77
2023/05/29 01:14:57;;;;;;;23.30;3.40;;;10.40;99.90;;;;;;4926239;29;20327;-77
2023/05/29 01:17:43;;;;;;;20.98;3.53;;;10.40;99.90;;;;;;4947434;29;20183;-80
2023/05/29 01:20:23;;;;;;;23.10;3.55;;;10.40;99.90;;;;;;4938401;29;20185;-77
2023/05/29 01:23:06;;;;;;;31.90;3.70;;;10.40;99.90;;;;;;4955622;29;20163;-77
2023/05/29 01:26:13;;;;;;;22.85;3.35;;;10.40;99.90;;;;;;4955332;29;20668;-77
2023/05/29 01:28:47;;;;;;;23.17;4.20;;;10.40;99.90;;;;;;4928422;29;20274;-77
2023/05/29 01:31:13;;;;;;;25.38;3.80;;;10.40;99.90;;;;;;4938127;29;20194;-77
2023/05/29 01:33:40;;;;;;;22.20;3.28;;;10.40;99.90;;;;;;4962628;28;20334;-77
2023/05/29 01:36:08;;;;;;;19.75;4.18;;;10.40;99.90;;;;;;4918809;29;20195;-77
2023/05/29 01:38:34;;;;;;;20.77;3.47;;;10.50;99.90;;;;;;4952750;29;20186;-77
2023/05/29 01:41:01;;;;;;;19.85;3.90;;;10.50;99.90;;;;;;4955069;29;20182;-77
2023/05/29 01:43:27;;;;;;;19.83;3.22;;;10.50;99.90;;;;;;4934161;29;20700;-76
2023/05/29 01:45:53;;;;;;;21.92;3.60;;;10.50;99.90;;;;;;4950438;29;20274;-77
2023/05/29 01:48:19;;;;;;;26.65;3.67;;;10.50;99.90;;;;;;4937524;29;20299;-77
2023/05/29 01:50:47;;;;;;;20.70;3.65;;;10.50;99.90;;;;;;4937321;29;20190;-77
2023/05/29 01:53:13;;;;;;;21.83;3.80;;;10.50;99.90;;;;;;4937572;29;20245;-77
2023/05/29 01:55:38;;;;;;;20.17;3.42;;;10.50;99.90;;;;;;4938452;28;20199;-77
2023/05/29 01:58:06;;;;;;;24.08;3.53;;;10.50;99.90;;;;;;4920972;29;20560;-84
2023/05/29 02:00:33;;;;;;;25.75;3.78;;;10.50;99.90;;;;;;4937245;29;20186;-77
2023/05/29 02:02:58;;;;;;;20.27;3.88;;;10.50;99.90;;;;;;4937146;29;20241;-77
2023/05/29 02:05:24;;;;;;;16.85;3.58;;;10.50;99.90;;;;;;4937668;29;20229;-77
2023/05/29 02:07:50;;;;;;;22.23;3.70;;;10.50;99.90;;;;;;4953575;28;20225;-77
2023/05/29 02:10:16;;;;;;;19.95;3.63;;;10.50;99.90;;;;;;4954433;29;20257;-76
2023/05/29 02:12:42;;;;;;;15.68;3.85;;;10.50;99.90;;;;;;4969164;28;20183;-76
2023/05/29 02:15:08;;;;;;;20.65;3.50;;;10.40;99.90;;;;;;4954810;29;20233;-77
2023/05/29 02:17:34;;;;;;;22.73;3.88;;;10.40;99.90;;;;;;4937214;29;20309;-76
2023/05/29 02:20:01;;;;;;;25.13;4.00;;;10.40;99.90;;;;;;4936750;29;20186;-76
2023/05/29 02:22:27;;;;;;;22.27;3.83;;;10.40;99.90;;;;;;4936996;29;20270;-76
2023/05/29 02:24:53;;;;;;;23.67;3.67;;;10.40;99.90;;;;;;4921099;29;20277;-77
2023/05/29 02:27:18;;;;;;;24.77;3.83;;;10.30;99.90;;;;;;4937008;29;20246;-77
2023/05/29 02:29:44;;;;;;;19.48;3.47;;;10.30;99.90;;;;;;4936863;29;20214;-76
2023/05/29 02:32:10;;;;;;;23.92;3.80;;;10.30;99.90;;;;;;4954046;29;20198;-77
2023/05/29 02:34:36;;;;;;;18.77;3.72;;;10.30;99.90;;;;;;4936529;29;20183;-77
2023/05/29 02:37:02;;;;;;;20.80;3.72;;;10.20;99.90;;;;;;4937037;29;20182;-76
2023/05/29 02:39:28;;;;;;;16.83;3.60;;;10.20;99.90;;;;;;4952856;29;20185;-77
2023/05/29 02:41:54;;;;;;;21.63;4.38;;;10.20;99.90;;;;;;4920712;29;20217;-77
2023/05/29 02:44:20;;;;;;;21.30;3.22;;;10.30;99.90;;;;;;4936582;29;20191;-76
2023/05/29 02:46:46;;;;;;;19.45;3.60;;;10.20;99.90;;;;;;4953836;29;20597;-76
2023/05/29 02:49:12;;;;;;;26.25;3.83;;;10.30;99.90;;;;;;4936377;29;20280;-76
2023/05/29 02:51:38;;;;;;;20.33;3.33;;;10.30;99.90;;;;;;4936481;29;20461;-77
2023/05/29 02:54:04;;;;;;;21.60;3.78;;;10.30;99.90;;;;;;4920556;29;20221;-76
2023/05/29 02:56:30;;;;;;;16.10;3.00;;;10.30;99.90;;;;;;4953626;29;20183;-78
2023/05/29 02:58:56;;;;;;;16.83;3.38;;;10.30;99.90;;;;;;4936436;29;20238;-76
2023/05/29 03:01:21;;;;;;;16.05;3.35;;;10.30;99.90;;;;;;4936388;29;20265;-76
2023/05/29 03:03:48;;;;;;;26.70;3.30;;;10.30;99.90;;;;;;4936168;29;20181;-76
2023/05/29 03:06:16;;;;;;;19.60;3.30;;;10.30;99.90;;;;;;4936410;29;20286;-77
2023/05/29 03:08:44;;;;;;;19.40;3.72;;;10.30;99.90;;;;;;4951769;28;20278;-76
2023/05/29 03:11:15;;;;;;;18.92;3.60;;;10.40;99.90;;;;;;4953691;29;20278;-76
2023/05/29 03:13:40;;;;;;;17.42;3.67;;;10.40;99.90;;;;;;4936276;29;20245;-76
2023/05/29 03:16:08;;;;;;;17.13;3.65;;;10.40;99.90;;;;;;4968192;28;20296;-77
2023/05/29 03:18:36;;;;;;;23.95;3.28;;;10.40;99.90;;;;;;4954324;28;20319;-77
2023/05/29 03:21:02;;;;;;;17.77;3.38;;;10.40;99.90;;;;;;4952136;29;20182;-77
2023/05/29 03:23:31;;;;;;;26.20;3.70;;;10.40;99.90;;;;;;4923514;29;20307;-77
2023/05/29 03:25:58;;;;;;;13.88;2.83;;;10.40;99.90;;;;;;4967825;28;20182;-77
2023/05/29 03:28:24;;;;;;;15.68;3.15;;;10.40;99.90;;;;;;4921324;29;20719;-76
2023/05/29 03:30:51;;;;;;;19.02;3.40;;;10.50;99.90;;;;;;4933035;29;20195;-76
2023/05/29 03:33:19;;;;;;;17.95;3.17;;;10.50;99.90;;;;;;4935689;29;20619;-77
2023/05/29 03:36:07;;;;;;;16.63;3.20;;;10.50;99.90;;;;;;4946111;29;20194;-77
2023/05/29 03:38:33;;;;;;;13.60;2.60;;;10.50;99.90;;;;;;4951971;29;20194;-77
2023/05/29 03:40:59;;;;;;;18.80;3.47;;;10.50;99.90;;;;;;4936136;29;20189;-77
2023/05/29 03:43:26;;;;;;;16.65;3.22;;;10.50;99.90;;;;;;4916844;29;20270;-76
2023/05/29 03:45:52;;;;;;;11.85;3.03;;;10.50;99.90;;;;;;4917011;29;20233;-77
2023/05/29 03:48:17;;;;;;;16.00;3.00;;;10.50;99.90;;;;;;4947777;29;20234;-76
2023/05/29 03:50:46;;;;;;;27.73;3.83;;;10.60;99.90;;;;;;4920424;29;20532;-77
2023/05/29 03:53:14;;;;;;;18.15;3.55;;;10.60;99.90;;;;;;4939002;29;20183;-77
2023/05/29 03:55:41;;;;;;;19.88;3.63;;;10.60;99.90;;;;;;4945084;28;20197;-77
2023/05/29 03:58:09;;;;;;;22.27;3.92;;;10.60;99.90;;;;;;4920121;29;20194;-77
2023/05/29 04:00:36;;;;;;;17.80;2.88;;;10.70;99.90;;;;;;4935689;29;20206;-77
2023/05/29 04:03:03;;;;;;;21.92;3.25;;;10.70;99.90;;;;;;4919227;29;20195;-78
2023/05/29 04:05:29;;;;;;;18.85;3.13;;;10.70;99.90;;;;;;4935715;29;20665;-77
2023/05/29 04:07:56;;;;;;;17.48;3.25;;;10.70;99.90;;;;;;4919483;29;20235;-77
2023/05/29 04:10:22;;;;;;;17.17;3.08;;;10.80;99.90;;;;;;4951789;29;20245;-77
2023/05/29 04:12:47;;;;;;;19.55;3.25;;;10.80;99.90;;;;;;4947269;29;20192;-77
2023/05/29 04:15:14;;;;;;;22.92;3.45;;;10.80;99.90;;;;;;4932672;29;20182;-77
2023/05/29 04:17:40;;;;;;;20.40;3.05;;;10.80;99.90;;;;;;4938382;29;20191;-77
2023/05/29 04:20:10;;;;;;;21.45;3.42;;;10.80;99.90;;;;;;4919966;29;20190;-77
2023/05/29 04:22:37;;;;;;;23.63;3.60;;;10.80;99.90;;;;;;4935327;29;20348;-77
2023/05/29 04:25:04;;;;;;;20.17;3.03;;;10.80;99.90;;;;;;4935397;29;20194;-78
2023/05/29 04:27:32;;;;;;;24.63;3.55;;;10.90;99.90;;;;;;4951502;29;20186;-77
2023/05/29 04:29:59;;;;;;;19.80;3.10;;;10.90;99.90;;;;;;4935687;29;20219;-77
2023/05/29 04:32:27;;;;;;;24.77;3.35;;;10.90;99.90;;;;;;4935203;29;20513;-77
2023/05/29 04:34:53;;;;;;;16.00;2.78;;;10.90;99.90;;;;;;4923087;29;20310;-77
2023/05/29 04:37:21;;;;;;;17.25;3.13;;;10.90;99.90;;;;;;4938802;29;20543;-77
2023/05/29 04:39:47;;;;;;;19.02;3.38;;;10.90;99.90;;;;;;4938806;29;20601;-77
2023/05/29 04:42:19;;;;;;;17.27;3.20;;;10.90;99.90;;;;;;4938675;29;20296;-77
2023/05/29 04:44:46;;;;;;;18.83;2.75;;;10.90;99.90;;;;;;4936534;29;20602;-77
2023/05/29 04:47:12;;;;;;;22.13;3.55;;;10.90;99.90;;;;;;4922712;29;20206;-77
2023/05/29 04:49:40;;;;;;;18.90;3.65;;;10.90;99.90;;;;;;4952317;28;20222;-77
2023/05/29 04:52:06;;;;;;;16.52;3.33;;;10.90;99.90;;;;;;4956409;28;20636;-77
2023/05/29 04:54:33;;;;;;;16.25;3.45;;;10.90;99.90;;;;;;4938493;29;20206;-82
2023/05/29 04:57:00;;;;;;;27.48;4.00;;;10.90;99.90;;;;;;4919373;29;20203;-78
2023/05/29 04:59:30;;;;;;;18.42;3.42;;;10.90;99.90;;;;;;4937415;29;20205;-77
2023/05/29 05:01:56;;;;;;;19.67;3.30;;;10.90;99.90;;;;;;4967705;28;20248;-77
2023/05/29 05:04:22;;;;;;;22.90;3.58;;;11.00;99.90;;;;;;4938028;29;20191;-77
2023/05/29 05:06:47;;;;;;;19.50;3.67;;;11.00;99.90;;;;;;4957185;28;20272;-77
2023/05/29 05:09:13;;;;;;;21.02;3.53;;;11.00;99.90;;;;;;4943239;28;20633;-77
2023/05/29 05:11:40;;;;;;;21.30;4.10;;;11.00;99.90;;;;;;4936137;28;20196;-77
2023/05/29 05:14:06;;;;;;;24.02;4.00;;;11.10;99.90;;;;;;4940422;29;20237;-77
2023/05/29 05:16:33;;;;;;;21.13;3.80;;;11.10;99.90;;;;;;4938493;29;20213;-76
2023/05/29 05:18:59;;;;;;;16.83;3.72;;;11.20;99.90;;;;;;4938296;29;20198;-77
2023/05/29 05:21:25;;;;;;;25.80;4.75;;;11.20;99.90;;;;;;4937609;29;20258;-78
2023/05/29 05:23:51;;;;;;;26.52;4.15;;;11.30;99.90;;;;;;4922358;29;20194;-78
2023/05/29 05:26:17;;;;;;;17.45;3.80;;;11.30;99.90;;;;;;4938205;29;20551;-78
2023/05/29 05:28:43;;;;;;;16.52;3.05;;;11.40;99.90;;;;;;4938158;29;20218;-78
2023/05/29 05:31:09;;;;;;;17.38;3.72;;;11.40;99.90;;;;;;4955450;29;20183;-78
2023/05/29 05:33:36;;;;;;;17.55;3.90;;;11.50;99.90;;;;;;4938253;29;20195;-78
2023/05/29 05:36:02;;;;;;;20.63;4.05;;;11.50;99.90;;;;;;4937889;29;20741;-78
2023/05/29 05:38:28;;;;;;;18.13;3.60;;;11.60;99.90;;;;;;4919034;29;20234;-77
2023/05/29 05:40:54;;;;;;;19.58;3.55;;;11.60;99.90;;;;;;4918654;29;20188;-77
2023/05/29 05:43:27;;;;;;;21.17;4.22;;;11.70;99.90;;;;;;4903918;29;20190;-77
2023/05/29 05:46:31;;;;;;;22.83;4.00;;;11.80;99.90;;;;;;4914665;29;20200;-77
2023/05/29 05:48:57;;;;;;;16.88;3.88;;;11.80;99.90;;;;;;4922489;29;20355;-78
2023/05/29 05:51:24;;;;;;;18.50;3.72;;;11.90;99.90;;;;;;4901015;29;20206;-78
2023/05/29 05:53:51;;;;;;;26.33;4.38;;;11.90;99.90;;;;;;4953034;29;20186;-77
2023/05/29 05:56:16;;;;;;;20.10;4.30;;;12.00;99.90;;;;;;4937479;29;20525;-76
2023/05/29 05:58:42;;;;;;;26.75;4.70;;;12.10;99.90;;;;;;4922246;29;20203;-76
2023/05/29 06:01:14;;;;;;;23.60;3.92;;;12.10;99.90;;;;;;4937184;29;20341;-79
2023/05/29 06:07:36;;;;;;;25.60;4.13;;;12.20;99.90;;;;;;4935775;28;20218;-78
2023/05/29 06:10:03;;;;;;;27.08;4.50;;;12.40;99.90;;;;;;4902544;29;20215;-77
2023/05/29 06:12:30;;;;;;;21.90;4.10;;;12.40;99.90;;;;;;4933835;29;20528;-77
2023/05/29 06:15:16;;;;;;;25.48;4.55;;;12.50;99.90;;;;;;4914334;29;20188;-77
2023/05/29 06:21:19;;;;;;;26.73;4.43;;;12.60;99.90;;;;;;4914142;29;20188;-77
2023/05/29 06:23:52;;;;;;;25.85;3.92;;;12.70;99.90;;;;;;4915924;29;20214;-78
2023/05/29 06:26:17;;;;;;;24.67;4.57;;;12.70;99.90;;;;;;4916816;29;20278;-80
2023/05/29 06:28:43;;;;;;;21.52;4.38;;;12.70;99.90;;;;;;4897456;29;20253;-77
2023/05/29 06:31:09;;;;;;;19.55;4.43;;;12.80;99.90;;;;;;4913851;29;20191;-80
2023/05/29 06:33:37;;;;;;;25.05;4.00;;;12.80;99.90;;;;;;4913256;29;20307;-78
2023/05/29 06:36:05;;;;;;;17.98;4.60;;;12.80;99.90;;;;;;4900796;29;20688;-78
2023/05/29 06:38:31;;;;;;;24.10;4.38;;;12.80;99.90;;;;;;4932426;29;20419;-78
2023/05/29 06:40:57;;;;;;;23.95;4.72;;;12.90;99.90;;;;;;4916333;29;20180;-78
2023/05/29 06:43:23;;;;;;;22.10;4.47;;;12.90;99.90;;;;;;4900786;29;20700;-78
2023/05/29 06:45:54;;;;;;;20.38;3.90;;;13.00;99.90;;;;;;4901532;29;20264;-78
2023/05/29 06:48:20;;;;;;;24.38;4.45;;;13.00;99.90;;;;;;4932071;29;20210;-78
2023/05/29 06:50:50;;;;;;;24.48;4.38;;;13.10;99.90;;;;;;4932292;29;20603;-78
2023/05/29 06:53:36;;;;;;;24.23;4.10;;;13.20;99.90;;;;;;4915190;29;20211;-78
2023/05/29 06:56:02;;;;;;;17.63;3.83;;;13.20;99.90;;;;;;4953896;29;20175;-77
2023/05/29 06:58:30;;;;;;;28.02;4.65;;;13.30;99.90;;;;;;4936444;29;20577;-77
2023/05/29 07:00:57;;;;;;;30.95;4.55;;;13.30;99.90;;;;;;4921428;29;20720;-77
2023/05/29 07:03:30;;;;;;;29.58;4.75;;;13.40;99.90;;;;;;4936642;29;20665;-79
2023/05/29 07:05:56;;;;;;;26.77;4.85;;;13.40;99.90;;;;;;4936007;29;20314;-76
2023/05/29 07:08:23;;;;;;;28.67;4.43;;;13.60;99.90;;;;;;4935949;29;20368;-76
2023/05/29 07:11:27;;;;;;;18.67;4.55;;;13.60;99.90;;;;;;4952536;29;20189;-77
2023/05/29 07:13:56;;;;;;;22.00;4.93;;;13.70;99.90;;;;;;4936637;29;20206;-77
2023/05/29 07:16:25;;;;;;;20.50;4.25;;;13.70;99.90;;;;;;4921385;29;20280;-77
2023/05/29 07:19:01;;;;;;;23.10;3.72;;;13.80;99.90;;;;;;4936885;29;20193;-77
2023/05/29 07:21:33;;;;;;;26.42;3.90;;;13.80;99.90;;;;;;4936239;29;20282;-77
2023/05/29 07:23:59;;;;;;;24.38;4.70;;;13.70;99.90;;;;;;4936699;29;20653;-76
2023/05/29 07:26:25;;;;;;;18.92;4.22;;;13.70;99.90;;;;;;4936168;29;20178;-77
2023/05/29 07:28:51;;;;;;;25.02;4.47;;;13.80;99.90;;;;;;4936321;29;20265;-76
2023/05/29 07:31:18;;;;;;;17.48;3.88;;;13.90;99.90;;;;;;4936560;29;20673;-76
2023/05/29 07:33:46;;;;;;;16.92;3.75;;;14.00;99.90;;;;;;4936620;29;20182;-76
2023/05/29 07:36:17;;;;;;;23.35;4.28;;;14.10;99.90;;;;;;4921106;29;20512;-76
2023/05/29 07:38:43;;;;;;;18.42;3.97;;;14.10;99.90;;;;;;4936299;29;20182;-76
2023/05/29 07:41:10;;;;;;;22.13;4.10;;;14.20;99.90;;;;;;4936806;29;20249;-76
2023/05/29 07:43:38;;;;;;;22.17;4.38;;;14.20;99.90;;;;;;4936200;29;20261;-76
2023/05/29 07:46:06;;;;;;;20.73;4.13;;;14.30;99.90;;;;;;4920566;29;20205;-76
2023/05/29 07:48:31;;;;;;;24.85;4.13;;;14.40;99.90;;;;;;4953349;29;20544;-76
2023/05/29 07:50:59;;;;;;;23.88;4.20;;;14.40;99.90;;;;;;4920677;29;20640;-76
2023/05/29 07:57:33;;;;;;;24.63;4.10;;;14.50;99.90;;;;;;4953837;29;20218;-78
2023/05/29 07:59:59;;;;;;;25.15;4.65;;;14.60;99.90;;;;;;4936365;29;20221;-78
2023/05/29 08:02:27;;;;;;;18.25;3.90;;;14.60;99.90;;;;;;4920403;29;20198;-77
2023/05/29 08:05:19;;;;;;;16.73;3.85;;;14.60;99.90;;;;;;4927350;29;20716;-78
2023/05/29 08:11:56;;;;;;;20.50;3.58;;;14.70;99.90;;;;;;4957164;29;20505;-77
2023/05/29 08:18:18;;;;;;;18.67;3.72;;;14.80;99.90;;;;;;4957148;29;20189;-77
2023/05/29 08:24:41;;;;;;;19.67;3.75;;;15.00;99.90;;;;;;4956832;29;20170;-77
2023/05/29 08:31:30;;;;;;;25.00;3.83;;;15.30;99.90;;;;;;4957079;29;20225;-77
2023/05/29 08:33:56;;;;;;;18.95;3.60;;;15.30;99.90;;;;;;4955099;29;20189;-79
2023/05/29 08:36:22;;;;;;;19.60;4.00;;;15.30;99.90;;;;;;4956284;29;20198;-77
2023/05/29 08:38:49;;;;;;;20.50;4.00;;;15.30;99.90;;;;;;4956714;29;20632;-78
2023/05/29 08:41:32;;;;;;;20.83;4.10;;;15.30;99.90;;;;;;4938937;29;20187;-77
2023/05/29 08:44:02;;;;;;;32.88;4.78;;;15.30;99.90;;;;;;4939370;29;20234;-77
2023/05/29 08:46:28;;;;;;;21.17;4.35;;;15.30;99.90;;;;;;4956165;29;20182;-76
2023/05/29 08:48:58;;;;;;;15.02;4.03;;;15.30;99.90;;;;;;4939109;29;20633;-76
2023/05/29 08:51:31;;;;;;;28.38;5.03;;;15.20;99.90;;;;;;4955841;29;20194;-77
2023/05/29 08:53:57;;;;;;;18.17;4.15;;;15.10;99.90;;;;;;4955517;29;20186;-77
2023/05/29 08:56:23;;;;;;;20.88;4.00;;;15.10;99.90;;;;;;4938896;29;20186;-77
2023/05/29 08:58:50;;;;;;;28.95;4.40;;;15.10;99.90;;;;;;4956329;29;20263;-76
2023/05/29 09:01:17;;;;;;;23.60;4.40;;;15.20;99.90;;;;;;4939182;29;20187;-77
2023/05/29 09:03:43;;;;;;;22.83;3.85;;;15.20;99.90;;;;;;4938919;29;20360;-77
2023/05/29 09:06:09;;;;;;;18.35;4.25;;;15.20;99.90;;;;;;4938974;29;20598;-77
2023/05/29 09:08:38;;;;;;;24.80;4.18;;;15.30;99.90;;;;;;4922617;29;20348;-76
2023/05/29 09:11:04;;;;;;;22.92;5.10;;;15.40;99.90;;;;;;4923019;29;20194;-77
2023/05/29 09:13:31;;;;;;;23.05;4.05;;;15.40;99.90;;;;;;4955989;29;20187;-77
2023/05/29 09:15:58;;;;;;;22.10;3.90;;;15.50;99.90;;;;;;4939309;28;20257;-76
2023/05/29 09:18:32;;;;;;;18.75;3.92;;;15.60;99.90;;;;;;4955522;29;20167;-77
2023/05/29 09:20:58;;;;;;;19.65;3.92;;;15.60;99.90;;;;;;4938751;29;20182;-77
2023/05/29 09:23:26;;;;;;;27.10;4.55;;;15.70;99.90;;;;;;4955827;29;20191;-77
2023/05/29 09:25:53;;;;;;;26.65;4.30;;;15.80;99.90;;;;;;4938371;29;20201;-77
2023/05/29 09:28:23;;;;;;;19.38;4.05;;;15.90;99.90;;;;;;4938101;29;20183;-77
2023/05/29 09:30:49;;;;;;;25.40;4.30;;;15.90;99.90;;;;;;4954376;29;20544;-77
2023/05/29 09:33:18;;;;;;;20.70;4.30;;;15.90;99.80;;;;;;4955476;29;20178;-77
2023/05/29 09:35:49;;;;;;;22.65;4.03;;;16.00;99.90;;;;;;4955300;29;20589;-77
2023/05/29 09:38:20;;;;;;;19.90;4.03;;;16.10;99.90;;;;;;4955590;29;20267;-77
2023/05/29 09:40:46;;;;;;;20.88;4.25;;;16.20;99.80;;;;;;4938761;29;20178;-77
2023/05/29 09:43:16;;;;;;;22.08;4.28;;;16.30;99.60;;;;;;4935919;29;20186;-77
2023/05/29 09:45:49;;;;;;;20.80;3.72;;;16.30;99.40;;;;;;4938519;29;20281;-77
2023/05/29 09:48:17;;;;;;;21.77;4.13;;;16.40;99.20;;;;;;4937782;29;20187;-78
2023/05/29 09:50:47;;;;;;;20.23;4.30;;;16.50;98.80;;;;;;4954090;29;20273;-77
2023/05/29 09:53:21;;;;;;;20.70;4.28;;;16.60;98.50;;;;;;4937684;29;20190;-77
2023/05/29 09:55:48;;;;;;;19.63;4.50;;;16.70;98.30;;;;;;4955228;29;20167;-77
2023/05/29 10:02:04;;;;;;;17.90;3.65;;;16.90;98.00;;;;;;4955029;29;20175;-77
2023/05/29 10:04:32;;;;;;;17.77;3.85;;;17.00;97.30;;;;;;4955157;29;20235;-77
2023/05/29 10:07:03;;;;;;;20.65;4.60;;;17.10;96.60;;;;;;4953507;29;20521;-81
2023/05/29 10:09:29;;;;;;;21.08;4.13;;;17.20;96.70;;;;;;4954456;28;20246;-77
2023/05/29 10:11:57;;;;;;;17.95;3.92;;;17.30;96.60;;;;;;4954858;29;20588;-78
2023/05/29 10:14:27;;;;;;;23.45;4.25;;;17.40;96.70;;;;;;4954608;29;20228;-78
2023/05/29 10:17:11;;;;;;;23.92;4.13;;;17.50;96.50;;;;;;4937935;29;20286;-78
2023/05/29 10:23:47;;;;;;;23.88;4.00;;;17.70;96.20;;;;;;4954984;29;20170;-78
2023/05/29 10:30:33;;;;;;;18.00;3.60;;;17.60;95.50;;;;;;4953872;29;20293;-78
2023/05/29 10:33:15;;;;;;;18.30;4.03;;;17.60;95.20;;;;;;4954310;28;20671;-79
2023/05/29 10:36:02;;;;;;;19.67;4.25;;;17.70;94.90;;;;;;4938320;29;20639;-80
2023/05/29 10:38:28;;;;;;;20.75;4.05;;;17.70;95.00;;;;;;4955532;28;20182;-79
2023/05/29 10:40:54;;;;;;;24.05;4.25;;;17.70;95.00;;;;;;4953302;29;20274;-79
2023/05/29 10:43:33;;;;;;;18.27;4.18;;;17.70;95.20;;;;;;4953358;29;20250;-77
2023/05/29 10:46:02;;;;;;;13.80;3.38;;;17.80;95.40;;;;;;4953051;29;20186;-79
2023/05/29 10:48:38;;;;;;;25.92;3.90;;;17.80;95.30;;;;;;4954040;28;20253;-80
2023/05/29 10:51:06;;;;;;;19.58;3.50;;;17.90;95.00;;;;;;4953247;29;20593;-77
2023/05/29 10:53:40;;;;;;;16.77;3.50;;;17.90;94.80;;;;;;4953913;29;20182;-78
2023/05/29 11:00:06;;;;;;;15.40;3.50;;;18.00;94.10;;;;;;4934895;29;20663;-77
2023/05/29 11:02:32;;;;;;;19.65;3.75;;;18.00;94.10;;;;;;4917309;29;20258;-77
2023/05/29 11:05:25;;;;;;;14.32;3.97;;;18.10;94.10;;;;;;4917506;29;20179;-77
2023/05/29 11:07:53;;;;;;;24.95;4.07;;;18.20;94.30;;;;;;4916747;29;20270;-79
2023/05/29 11:10:55;;;;;;;23.73;4.10;;;18.20;94.00;;;;;;4934508;29;20199;-79
2023/05/29 11:13:36;;;;;;;21.70;4.30;;;18.20;93.80;;;;;;4934769;29;20171;-79
2023/05/29 11:16:14;;;;;;;18.55;3.90;;;18.10;93.70;;;;;;4936695;29;20226;-79
2023/05/29 11:18:41;;;;;;;19.60;3.55;;;18.10;93.90;;;;;;4921029;29;20209;-79
2023/05/29 11:21:15;;;;;;;15.15;3.47;;;18.10;93.90;;;;;;4953593;29;20179;-79
2023/05/29 11:23:43;;;;;;;15.48;3.38;;;18.00;93.60;;;;;;4936175;29;20171;-79
2023/05/29 11:26:09;;;;;;;13.13;3.20;;;18.00;93.30;;;;;;4937774;29;20210;-79
2023/05/29 11:28:36;;;;;;;18.05;3.55;;;18.00;92.80;;;;;;4943117;29;20223;-79
2023/05/29 11:31:08;;;;;;;12.98;3.35;;;18.10;93.00;;;;;;4935908;29;20315;-78
2023/05/29 11:33:40;;;;;;;20.77;4.00;;;18.10;92.80;;;;;;4941076;29;20183;-80
2023/05/29 11:36:06;;;;;;;18.08;3.67;;;18.10;92.60;;;;;;4935838;29;20259;-80
2023/05/29 11:38:32;;;;;;;16.08;4.57;;;18.20;92.40;;;;;;4917091;29;20572;-79
2023/05/29 11:41:01;;;;;;;17.70;3.75;;;18.20;92.30;;;;;;4937072;29;20218;-81
2023/05/29 11:43:27;;;;;;;20.15;3.83;;;18.30;92.30;;;;;;4920932;29;20274;-79
2023/05/29 11:45:53;;;;;;;14.27;3.67;;;18.40;92.20;;;;;;4921075;29;20670;-79
2023/05/29 11:48:19;;;;;;;20.50;3.60;;;18.30;91.80;;;;;;4937023;29;20329;-79
2023/05/29 11:50:45;;;;;;;13.98;3.67;;;18.30;91.90;;;;;;4938141;29;20197;-79
2023/05/29 11:53:11;;;;;;;15.35;3.47;;;18.30;92.00;;;;;;4937876;29;20176;-79
2023/05/29 11:55:37;;;;;;;20.08;3.58;;;18.30;92.00;;;;;;4926874;29;20213;-79
2023/05/29 11:58:04;;;;;;;17.77;3.75;;;18.30;92.00;;;;;;4945483;29;20660;-79
2023/05/29 12:00:40;;;;;;;16.80;3.95;;;18.40;92.10;;;;;;4957086;29;20179;-79
2023/05/29 12:03:07;;;;;;;19.75;3.35;;;18.40;91.80;;;;;;4957116;29;20182;-79
2023/05/29 12:05:52;;;;;;;20.10;3.45;;;18.40;91.70;;;;;;4956756;29;20211;-79
2023/05/29 12:08:20;;;;;;;16.17;3.20;;;18.50;91.60;;;;;;4956672;28;20226;-79
2023/05/29 12:10:51;;;;;;;16.52;3.55;;;18.50;91.50;;;;;;4939690;29;20238;-79
2023/05/29 12:13:19;;;;;;;18.08;3.75;;;18.40;91.30;;;;;;4923852;29;20660;-79
2023/05/29 12:15:47;;;;;;;14.10;3.40;;;18.30;91.40;;;;;;4957228;29;20278;-78
2023/05/29 12:18:13;;;;;;;18.45;3.50;;;18.30;91.40;;;;;;4955601;29;20281;-81
2023/05/29 12:20:39;;;;;;;14.43;3.28;;;18.40;91.40;;;;;;4923620;29;20225;-83
2023/05/29 12:23:05;;;;;;;17.52;3.55;;;18.40;91.30;;;;;;4939838;29;20182;-81
2023/05/29 12:25:36;;;;;;;15.77;3.55;;;18.40;91.30;;;;;;4939415;29;20277;-82
2023/05/29 12:28:02;;;;;;;17.88;3.40;;;18.40;90.90;;;;;;4939568;29;20181;-81
2023/05/29 12:30:28;;;;;;;16.05;3.45;;;18.30;90.30;;;;;;4939208;29;20214;-81
2023/05/29 12:32:54;;;;;;;10.43;2.95;;;18.20;90.30;;;;;;4956417;29;20534;-82
2023/05/29 12:35:20;;;;;;;16.50;3.45;;;18.20;90.80;;;;;;4956658;29;20234;-82
2023/05/29 12:37:58;;;;;;;13.95;3.30;;;18.20;90.50;;;;;;4955602;29;20193;-82
2023/05/29 12:40:26;;;;;;;12.55;3.15;;;18.20;90.60;;;;;;4939146;29;20207;-81
2023/05/29 12:43:00;;;;;;;11.77;2.90;;;18.30;90.40;;;;;;4956961;29;20186;-82
2023/05/29 12:45:28;;;;;;;15.43;3.30;;;18.30;90.20;;;;;;4920636;29;20242;-82
2023/05/29 12:48:01;;;;;;;17.52;2.97;;;18.30;90.50;;;;;;4904581;29;20187;-81
2023/05/29 12:50:30;;;;;;;15.23;3.35;;;18.30;90.20;;;;;;4937287;29;20302;-82
2023/05/29 12:53:01;;;;;;;12.40;3.17;;;18.20;90.00;;;;;;4936174;29;20178;-81
2023/05/29 12:55:28;;;;;;;26.52;3.08;;;18.30;89.80;;;;;;4935785;29;20248;-82
2023/05/29 12:57:58;;;;;;;10.63;2.78;;;18.30;89.30;;;;;;4926659;29;20197;-83
2023/05/29 13:00:23;;;;;;;16.95;3.08;;;18.30;89.40;;;;;;4946481;29;20578;-81
2023/05/29 13:02:51;;;;;;;12.85;3.30;;;18.40;89.60;;;;;;4923127;29;20206;-80
2023/05/29 13:05:18;;;;;;;13.80;2.90;;;18.40;88.90;;;;;;4938837;29;20226;-80
2023/05/29 13:07:47;;;;;;;16.45;3.03;;;18.40;87.80;;;;;;4956230;29;20277;-79
2023/05/29 13:10:14;;;;;;;12.15;2.78;;;18.40;87.60;;;;;;4938386;29;20253;-81
2023/05/29 13:12:43;;;;;;;16.92;3.15;;;18.40;87.00;;;;;;4923384;29;20239;-80
2023/05/29 13:15:11;;;;;;;12.88;3.00;;;18.40;87.30;;;;;;4932685;29;20537;-80
2023/05/29 13:17:40;;;;;;;12.38;2.83;;;18.40;87.20;;;;;;4919590;29;20194;-80
2023/05/29 13:20:10;;;;;;;13.05;3.00;;;18.40;86.20;;;;;;4946508;29;20190;-80
2023/05/29 13:22:37;;;;;;;14.20;3.00;;;18.40;86.80;;;;;;4939419;29;20206;-80
2023/05/29 13:25:04;;;;;;;18.05;2.97;;;18.30;87.70;;;;;;4955673;29;20208;-83
2023/05/29 13:27:29;;;;;;;11.75;2.60;;;18.30;88.00;;;;;;4955423;29;20194;-80